createdAt,value
2022-09-12T00:01:13.328Z,96.3
2022-09-12T00:04:13.344Z,96.4
2022-09-12T00:07:13.331Z,96.6
2022-09-12T00:10:13.340Z,96.5
2022-09-12T00:13:13.349Z,96.1
2022-09-12T00:16:13.418Z,95.9
2022-09-12T00:19:13.370Z,95.8
2022-09-12T00:22:13.398Z,95.8
2022-09-12T00:25:13.385Z,95.8
2022-09-12T00:28:13.392Z,95.9
2022-09-12T00:31:13.431Z,96.1
2022-09-12T00:34:13.417Z,96.3
2022-09-12T00:37:13.426Z,96.3
2022-09-12T00:40:13.500Z,96.3
2022-09-12T00:43:13.448Z,96.4
2022-09-12T00:46:13.464Z,96.5
2022-09-12T00:49:13.459Z,96.5
2022-09-12T00:52:13.466Z,96.5
2022-09-12T00:55:13.477Z,96.5
2022-09-12T00:58:13.511Z,96.5
2022-09-12T01:01:13.542Z,96.5
2022-09-12T01:04:13.505Z,96.6
2022-09-12T01:07:13.512Z,96.7
2022-09-12T01:10:13.517Z,96.9
2022-09-12T01:13:13.530Z,97
2022-09-12T01:16:13.726Z,96.9
2022-09-12T01:19:13.554Z,96.9
2022-09-12T01:22:13.571Z,96.9
2022-09-12T01:25:13.572Z,96.9
2022-09-12T01:28:13.589Z,96.8
2022-09-12T01:31:13.587Z,96.7
2022-09-12T01:34:13.626Z,96.7
2022-09-12T01:37:13.610Z,96.8
2022-09-12T01:40:13.635Z,96.8
2022-09-12T01:43:13.626Z,96.7
2022-09-12T01:46:13.639Z,96.6
2022-09-12T01:49:13.648Z,96.6
2022-09-12T01:52:13.692Z,96.8
2022-09-12T01:55:13.667Z,96.9
2022-09-12T01:58:13.677Z,97.1
2022-09-12T02:01:13.719Z,97.1
2022-09-12T02:04:13.692Z,97.1
2022-09-12T02:07:13.706Z,97.1
2022-09-12T02:10:13.744Z,97
2022-09-12T02:13:13.719Z,97
2022-09-12T02:16:13.757Z,97
2022-09-12T02:19:13.741Z,97.1
2022-09-12T02:22:13.745Z,97
2022-09-12T02:25:13.741Z,96.9
2022-09-12T02:28:13.774Z,96.8
2022-09-12T02:31:13.750Z,96.8
2022-09-12T02:34:13.750Z,96.9
2022-09-12T02:37:13.750Z,96.9
2022-09-12T02:40:13.797Z,97
2022-09-12T02:43:13.748Z,97.1
2022-09-12T02:46:13.780Z,97.2
2022-09-12T02:49:13.760Z,97.2
2022-09-12T02:52:13.759Z,97.3
2022-09-12T02:55:13.763Z,97.3
2022-09-12T02:58:13.760Z,97.2
2022-09-12T03:01:13.813Z,97.1
2022-09-12T03:04:13.794Z,97.2
2022-09-12T03:07:13.780Z,97.3
2022-09-12T03:10:13.771Z,97.3
2022-09-12T03:13:13.774Z,97.2
2022-09-12T03:16:13.810Z,97.4
2022-09-12T03:19:13.783Z,97.4
2022-09-12T03:22:13.803Z,97.3
2022-09-12T03:25:13.770Z,97.1
2022-09-12T03:28:13.777Z,97.1
2022-09-12T03:31:13.781Z,97.2
2022-09-12T03:34:13.778Z,97
2022-09-12T03:37:13.783Z,96.9
2022-09-12T03:40:13.837Z,96.8
2022-09-12T03:43:13.788Z,96.7
2022-09-12T03:46:13.787Z,96.6
2022-09-12T03:49:13.794Z,96.7
2022-09-12T03:52:13.781Z,96.9
2022-09-12T03:55:13.799Z,97.1
2022-09-12T03:58:13.811Z,97.2
2022-09-12T04:01:13.836Z,97.2
2022-09-12T04:04:13.792Z,97.1
2022-09-12T04:07:13.799Z,97.1
2022-09-12T04:10:16.033Z,97.2
2022-09-12T04:13:13.801Z,97.4
2022-09-12T04:16:13.855Z,97.5
2022-09-12T04:19:13.801Z,97.7
2022-09-12T04:22:13.807Z,97.7
2022-09-12T04:25:13.806Z,97.6
2022-09-12T04:28:13.813Z,97.4
2022-09-12T04:31:13.806Z,97.2
2022-09-12T04:34:13.835Z,97.3
2022-09-12T04:37:13.811Z,97.4
2022-09-12T04:40:13.835Z,97.3
2022-09-12T04:43:14.610Z,97.2
2022-09-12T04:46:13.863Z,97.3
2022-09-12T04:49:13.828Z,97.4
2022-09-12T04:52:13.840Z,97.5
2022-09-12T04:55:13.819Z,97.6
2022-09-12T04:58:13.822Z,97.7
2022-09-12T05:01:13.880Z,97.7
2022-09-12T05:04:13.833Z,97.8
2022-09-12T05:07:13.828Z,97.9
2022-09-12T05:10:13.855Z,97.9
2022-09-12T05:13:13.832Z,98
2022-09-12T05:16:13.873Z,98
2022-09-12T05:19:13.844Z,98
2022-09-12T05:22:13.836Z,98
2022-09-12T05:25:13.839Z,98
2022-09-12T05:28:13.863Z,98.1
2022-09-12T05:31:13.865Z,98.1
2022-09-12T05:34:13.859Z,98.1
2022-09-12T05:37:13.850Z,98.1
2022-09-12T05:40:13.879Z,98.2
2022-09-12T05:43:13.852Z,98.2
2022-09-12T05:46:13.900Z,98.2
2022-09-12T05:49:13.859Z,98.1
2022-09-12T05:52:13.855Z,98
2022-09-12T05:55:13.858Z,97.9
2022-09-12T05:58:13.857Z,97.8
2022-09-12T06:01:13.872Z,97.7
2022-09-12T06:04:13.886Z,97.3
2022-09-12T06:07:13.866Z,96.7
2022-09-12T06:10:13.867Z,95.5
2022-09-12T06:13:13.868Z,94.4
2022-09-12T06:16:13.934Z,93
2022-09-12T06:19:13.871Z,91.6
2022-09-12T06:22:13.898Z,90.3
2022-09-12T06:25:13.875Z,89
2022-09-12T06:28:13.877Z,88.2
2022-09-12T06:31:13.927Z,87
2022-09-12T06:34:13.892Z,86.4
2022-09-12T06:37:13.892Z,85.4
2022-09-12T06:40:13.958Z,84.9
2022-09-12T06:43:13.896Z,83.6
2022-09-12T06:46:13.940Z,82.7
2022-09-12T06:49:13.888Z,82.1
2022-09-12T06:52:13.902Z,81.1
2022-09-12T06:55:17.497Z,80
2022-09-12T06:58:13.928Z,79.2
2022-09-12T07:01:13.937Z,78.2
2022-09-12T07:04:13.909Z,77.5
2022-09-12T07:07:13.920Z,76.9
2022-09-12T07:10:13.918Z,75.6
2022-09-12T07:13:13.919Z,74.5
2022-09-12T07:16:18.799Z,73.3
2022-09-12T07:19:13.931Z,72.3
2022-09-12T07:22:13.945Z,71.6
2022-09-12T07:25:13.930Z,70.8
2022-09-12T07:28:13.946Z,69.7
2022-09-12T07:31:13.976Z,68.8
2022-09-12T07:34:13.990Z,67.9
2022-09-12T07:37:13.940Z,67.4
2022-09-12T07:40:13.970Z,67
2022-09-12T07:43:13.951Z,66.3
2022-09-12T07:46:13.961Z,65
2022-09-12T07:49:13.961Z,64.3
2022-09-12T07:52:13.979Z,64.2
2022-09-12T07:55:13.962Z,63.7
2022-09-12T07:58:13.971Z,63.3
2022-09-12T08:01:14.090Z,62.5
2022-09-12T08:04:13.972Z,62.1
2022-09-12T08:07:13.977Z,61.4
2022-09-12T08:10:13.997Z,60.8
2022-09-12T08:13:13.977Z,60.6
2022-09-12T08:16:14.064Z,59.8
2022-09-12T08:19:13.975Z,60.1
2022-09-12T08:22:13.971Z,59.6
2022-09-12T08:25:13.978Z,58.3
2022-09-12T08:28:14.001Z,58
2022-09-12T08:31:13.996Z,57
2022-09-12T08:34:13.983Z,57
2022-09-12T08:37:13.986Z,57.4
2022-09-12T08:40:14.019Z,56.8
2022-09-12T08:43:14.002Z,55.9
2022-09-12T08:46:14.083Z,55.7
2022-09-12T08:49:14.010Z,54.9
2022-09-12T08:52:14.012Z,54.7
2022-09-12T08:55:14.013Z,54.1
2022-09-12T08:58:14.020Z,53.9
2022-09-12T09:01:14.056Z,53.9
2022-09-12T09:04:14.052Z,53.2
2022-09-12T09:07:14.027Z,53.7
2022-09-12T09:10:14.043Z,52.4
2022-09-12T09:13:14.045Z,52
2022-09-12T09:16:14.066Z,51.3
2022-09-12T09:19:14.047Z,51.7
2022-09-12T09:22:14.074Z,51.8
2022-09-12T09:25:14.055Z,51.9
2022-09-12T09:28:14.059Z,50.7
2022-09-12T09:31:14.091Z,50
2022-09-12T09:34:14.058Z,50.1
2022-09-12T09:37:14.063Z,49.5
2022-09-12T09:40:14.142Z,49.4
2022-09-12T09:43:14.067Z,48.9
2022-09-12T09:46:14.121Z,48.9
2022-09-12T09:49:14.082Z,49.3
2022-09-12T09:52:14.093Z,48.7
2022-09-12T09:55:14.095Z,48.1
2022-09-12T09:58:14.125Z,48.2
2022-09-12T10:01:14.121Z,47.8
2022-09-12T10:04:14.104Z,47.5
2022-09-12T10:07:14.117Z,48
2022-09-12T10:10:14.121Z,47.6
2022-09-12T10:13:14.119Z,47.7
2022-09-12T10:16:14.180Z,47.3
2022-09-12T10:19:14.130Z,47.1
2022-09-12T10:22:14.138Z,46.3
2022-09-12T10:25:14.148Z,45.7
2022-09-12T10:28:14.148Z,45.5
2022-09-12T10:31:14.174Z,44.9
2022-09-12T10:34:14.182Z,45.2
2022-09-12T10:37:14.160Z,44.6
2022-09-12T10:40:14.232Z,44.5
2022-09-12T10:43:14.170Z,44.2
2022-09-12T10:46:14.212Z,43.4
2022-09-12T10:49:14.175Z,43.6
2022-09-12T10:52:14.213Z,43.6
2022-09-12T10:55:14.197Z,43.7
2022-09-12T10:58:14.192Z,43.7
2022-09-12T11:01:14.230Z,43.8
2022-09-12T11:04:14.207Z,44
2022-09-12T11:07:14.209Z,43.9
2022-09-12T11:10:14.247Z,44.1
2022-09-12T11:13:14.219Z,42.8
2022-09-12T11:16:14.238Z,43.4
2022-09-12T11:19:14.244Z,43.3
2022-09-12T11:22:14.277Z,41.9
2022-09-12T11:25:14.334Z,43.4
2022-09-12T11:28:14.270Z,44.4
2022-09-12T11:31:14.282Z,44
2022-09-12T11:34:14.267Z,44.1
2022-09-12T11:37:17.893Z,44.1
2022-09-12T11:40:14.287Z,44.7
2022-09-12T11:43:14.283Z,44.8
2022-09-12T11:46:14.338Z,45.2
2022-09-12T11:49:14.299Z,46.5
2022-09-12T11:52:14.301Z,46.7
2022-09-12T11:55:14.303Z,45.8
2022-09-12T11:58:14.310Z,45.2
2022-09-12T12:01:14.322Z,46.2
2022-09-12T12:04:14.352Z,46.1
2022-09-12T12:07:14.327Z,45.7
2022-09-12T12:10:14.340Z,46.3
2022-09-12T12:13:14.413Z,47.2
2022-09-12T12:16:14.410Z,47.4
2022-09-12T12:19:14.368Z,46.8
2022-09-12T12:22:14.424Z,46.8
2022-09-12T12:25:16.285Z,46.7
2022-09-12T12:28:14.384Z,47.2
2022-09-12T12:31:14.414Z,46.9
2022-09-12T12:34:14.399Z,47.9
2022-09-12T12:37:14.406Z,47.8
2022-09-12T12:40:14.698Z,47.6
2022-09-12T12:43:14.417Z,47.9
2022-09-12T12:46:14.444Z,48.2
2022-09-12T12:49:14.423Z,48.1
2022-09-12T12:52:14.440Z,48.4
2022-09-12T12:55:14.535Z,48.4
2022-09-12T12:58:14.474Z,48.5
2022-09-12T13:01:14.528Z,48.6
2022-09-12T13:04:14.471Z,48.2
2022-09-12T13:07:14.469Z,48.8
2022-09-12T13:10:14.477Z,48.6
2022-09-12T13:13:14.485Z,48.8
2022-09-12T13:16:14.533Z,48.6
2022-09-12T13:19:18.078Z,48.8
2022-09-12T13:22:14.521Z,48.6
2022-09-12T13:25:14.517Z,48.2
2022-09-12T13:28:14.525Z,48.6
2022-09-12T13:31:14.540Z,48.6
2022-09-12T13:34:14.566Z,47.6
2022-09-12T13:37:14.552Z,47.6
2022-09-12T13:40:14.595Z,48.5
2022-09-12T13:43:14.560Z,48.7
2022-09-12T13:46:14.601Z,48.9
2022-09-12T13:49:14.572Z,49.2
2022-09-12T13:52:14.642Z,48.9
2022-09-12T13:55:14.593Z,48.4
2022-09-12T13:58:14.604Z,48.1
2022-09-12T14:01:14.639Z,48.8
2022-09-12T14:04:14.622Z,48.8
2022-09-12T14:07:14.625Z,48.9
2022-09-12T14:10:14.692Z,49.2
2022-09-12T14:13:14.640Z,48.7
2022-09-12T14:16:14.664Z,48.3
2022-09-12T14:19:14.658Z,48.9
2022-09-12T14:22:14.663Z,49.3
2022-09-12T14:25:14.671Z,49.5
2022-09-12T14:28:14.703Z,49.2
2022-09-12T14:31:14.715Z,50.1
2022-09-12T14:34:14.692Z,49.5
2022-09-12T14:37:14.708Z,50.1
2022-09-12T14:40:14.745Z,50.6
2022-09-12T14:43:14.723Z,49.7
2022-09-12T14:46:14.856Z,48.5
2022-09-12T14:49:14.739Z,48.6
2022-09-12T14:52:14.742Z,48.1
2022-09-12T14:55:14.749Z,48.1
2022-09-12T14:58:14.755Z,48.5
2022-09-12T15:01:14.783Z,48
2022-09-12T15:04:14.813Z,47.8
2022-09-12T15:07:14.778Z,48
2022-09-12T15:10:14.778Z,47.7
2022-09-12T15:13:14.785Z,47.4
2022-09-12T15:16:14.868Z,47.8
2022-09-12T15:19:14.801Z,48.1
2022-09-12T15:22:14.836Z,47.4
2022-09-12T15:25:14.808Z,48
2022-09-12T15:28:14.816Z,48.3
2022-09-12T15:31:14.926Z,48.3
2022-09-12T15:34:14.865Z,48.1
2022-09-12T15:37:14.975Z,49
2022-09-12T15:40:14.922Z,49.2
2022-09-12T15:43:14.850Z,50
2022-09-12T15:46:14.916Z,50.5
2022-09-12T15:49:14.859Z,50.1
2022-09-12T15:52:14.868Z,50.4
2022-09-12T15:55:14.878Z,51
2022-09-12T15:58:14.990Z,52
2022-09-12T16:01:14.912Z,52.5
2022-09-12T16:04:14.897Z,53.5
2022-09-12T16:07:14.904Z,54.1
2022-09-12T16:10:14.917Z,54.4
2022-09-12T16:13:14.922Z,54.6
2022-09-12T16:16:15.021Z,54.6
2022-09-12T16:19:15.027Z,54.7
2022-09-12T16:22:14.945Z,54.8
2022-09-12T16:25:14.954Z,55.1
2022-09-12T16:28:14.956Z,55.5
2022-09-12T16:31:15.096Z,56
2022-09-12T16:34:15.070Z,56.5
2022-09-12T16:37:14.970Z,56.5
2022-09-12T16:40:15.104Z,57
2022-09-12T16:43:14.982Z,56.9
2022-09-12T16:46:15.044Z,57.6
2022-09-12T16:49:15.004Z,57.5
2022-09-12T16:52:15.062Z,57.6
2022-09-12T16:55:15.015Z,58.2
2022-09-12T16:58:15.042Z,58.6
2022-09-12T17:01:15.054Z,59.1
2022-09-12T17:04:15.049Z,59.7
2022-09-12T17:07:15.059Z,60.2
2022-09-12T17:10:15.171Z,60.7
2022-09-12T17:13:15.075Z,61.4
2022-09-12T17:16:15.143Z,62.1
2022-09-12T17:19:15.093Z,62.4
2022-09-12T17:22:15.100Z,62.8
2022-09-12T17:25:15.210Z,63.2
2022-09-12T17:28:15.135Z,63.7
2022-09-12T17:31:15.214Z,64.2
2022-09-12T17:34:15.125Z,64.7
2022-09-12T17:37:15.140Z,65.3
2022-09-12T17:40:15.227Z,66
2022-09-12T17:43:15.159Z,66.5
2022-09-12T17:46:15.285Z,67
2022-09-12T17:49:15.176Z,67.3
2022-09-12T17:52:15.186Z,67.8
2022-09-12T17:55:15.197Z,68.2
2022-09-12T17:58:15.216Z,68.6
2022-09-12T18:01:15.232Z,69
2022-09-12T18:04:15.255Z,69.3
2022-09-12T18:07:15.242Z,69.9
2022-09-12T18:10:15.251Z,70.5
2022-09-12T18:13:15.266Z,70.9
2022-09-12T18:16:15.346Z,71.3
2022-09-12T18:19:15.280Z,71.8
2022-09-12T18:22:15.405Z,72.1
2022-09-12T18:25:15.307Z,72.5
2022-09-12T18:28:15.316Z,72.9
2022-09-12T18:31:15.397Z,73.3
2022-09-12T18:34:15.377Z,73.6
2022-09-12T18:37:15.335Z,73.8
2022-09-12T18:40:15.461Z,74.5
2022-09-12T18:43:15.360Z,74.9
2022-09-12T18:46:15.468Z,75
2022-09-12T18:49:15.392Z,75.3
2022-09-12T18:52:16.165Z,75.5
2022-09-12T18:55:15.417Z,75.8
2022-09-12T18:58:15.462Z,76
2022-09-12T19:01:15.567Z,76.3
2022-09-12T19:04:15.451Z,76.7
2022-09-12T19:07:15.460Z,77.2
2022-09-12T19:10:15.472Z,77.4
2022-09-12T19:13:15.489Z,77.4
2022-09-12T19:16:15.602Z,77.5
2022-09-12T19:19:15.500Z,77.8
2022-09-12T19:22:15.510Z,78
2022-09-12T19:25:15.518Z,78.2
2022-09-12T19:28:15.526Z,78.4
2022-09-12T19:31:15.583Z,78.5
2022-09-12T19:34:15.573Z,78.6
2022-09-12T19:37:15.559Z,78.9
2022-09-12T19:40:15.607Z,79.2
2022-09-12T19:43:15.584Z,79.4
2022-09-12T19:46:15.622Z,79.7
2022-09-12T19:49:15.605Z,80.1
2022-09-12T19:52:17.530Z,80.4
2022-09-12T19:55:15.628Z,80.5
2022-09-12T19:58:15.645Z,80.6
2022-09-12T20:01:15.708Z,80.9
2022-09-12T20:04:15.659Z,81.2
2022-09-12T20:07:15.670Z,81.3
2022-09-12T20:10:15.710Z,81.7
2022-09-12T20:13:15.693Z,81.6
2022-09-12T20:16:18.984Z,81.8
2022-09-12T20:19:15.716Z,81.7
2022-09-12T20:22:15.723Z,81.8
2022-09-12T20:25:15.733Z,82
2022-09-12T20:28:15.848Z,82.3
2022-09-12T20:31:15.888Z,82.6
2022-09-12T20:34:15.766Z,83
2022-09-12T20:37:15.778Z,83.1
2022-09-12T20:40:15.829Z,83.2
2022-09-12T20:43:15.795Z,83.3
2022-09-12T20:46:18.611Z,83
2022-09-12T20:49:15.822Z,83.7
2022-09-12T20:52:15.834Z,84
2022-09-12T20:55:15.851Z,84
2022-09-12T20:58:15.849Z,84
2022-09-12T21:01:16.104Z,83.9
2022-09-12T21:04:15.997Z,83.8
2022-09-12T21:07:15.895Z,83.7
2022-09-12T21:10:15.911Z,83.5
2022-09-12T21:13:15.922Z,83.3
2022-09-12T21:16:16.033Z,83.2
2022-09-12T21:19:15.936Z,83.1
2022-09-12T21:22:16.058Z,83.4
2022-09-12T21:25:15.956Z,83.6
2022-09-12T21:28:15.968Z,83.6
2022-09-12T21:31:16.064Z,83.6
2022-09-12T21:34:15.990Z,83.6
2022-09-12T21:37:16.002Z,83.8
2022-09-12T21:40:16.185Z,83.9
2022-09-12T21:43:16.024Z,84.1
2022-09-12T21:46:16.129Z,84.3
2022-09-12T21:49:16.043Z,84.1
2022-09-12T21:52:16.054Z,84.7
2022-09-12T21:55:16.063Z,85
2022-09-12T21:58:16.097Z,85.2
2022-09-12T22:01:16.211Z,85.5
2022-09-12T22:04:16.095Z,85.7
2022-09-12T22:07:16.104Z,85.6
2022-09-12T22:10:16.115Z,85.6
2022-09-12T22:13:16.127Z,85.9
2022-09-12T22:16:16.203Z,85.9
2022-09-12T22:19:16.141Z,85.9
2022-09-12T22:22:16.153Z,85.9
2022-09-12T22:25:16.163Z,85.8
2022-09-12T22:28:16.173Z,85.7
2022-09-12T22:31:16.246Z,85.7
2022-09-12T22:34:16.218Z,85.7
2022-09-12T22:37:16.202Z,85.7
2022-09-12T22:40:16.231Z,85.6
2022-09-12T22:43:16.219Z,85.7
2022-09-12T22:46:16.304Z,85.5
2022-09-12T22:49:16.237Z,85.9
2022-09-12T22:52:16.352Z,86
2022-09-12T22:55:16.253Z,85.9
2022-09-12T22:58:16.266Z,86.1
2022-09-12T23:01:16.325Z,86.2
2022-09-12T23:04:16.276Z,86.3
2022-09-12T23:07:16.283Z,86.2
2022-09-12T23:10:16.395Z,86.1
2022-09-12T23:13:16.295Z,86.1
2022-09-12T23:16:16.358Z,85.9
2022-09-12T23:19:16.309Z,85.6
2022-09-12T23:22:16.310Z,85.4
2022-09-12T23:25:16.317Z,85.6
2022-09-12T23:28:16.347Z,85.6
2022-09-12T23:31:16.352Z,85.6
2022-09-12T23:34:16.343Z,85.7
2022-09-12T23:37:16.343Z,85.9
2022-09-12T23:40:16.385Z,86.1
2022-09-12T23:43:16.352Z,85.8
2022-09-12T23:46:16.482Z,85.6
2022-09-12T23:49:16.368Z,85.6
2022-09-12T23:52:16.371Z,85.6
2022-09-12T23:55:16.383Z,85.7
2022-09-12T23:58:16.385Z,85.9
